sensor_id;sensor_type;location;lat;lon;timestamp;temperature;humidity
5009;DHT22;2523;51.058;6.922;2023-06-10T00:01:41;21.80;99.90
5009;DHT22;2523;51.058;6.922;2023-06-10T00:04:06;21.80;99.90
5009;DHT22;2523;51.058;6.922;2023-06-10T00:06:32;21.80;99.90
5009;DHT22;2523;51.058;6.922;2023-06-10T00:09:05;21.70;99.90
5009;DHT22;2523;51.058;6.922;2023-06-10T00:11:34;21.60;99.90
5009;DHT22;2523;51.058;6.922;2023-06-10T00:14:00;21.60;99.90
5009;DHT22;2523;51.058;6.922;2023-06-10T00:16:26;21.50;99.90
5009;DHT22;2523;51.058;6.922;2023-06-10T00:18:51;21.50;99.90
5009;DHT22;2523;51.058;6.922;2023-06-10T00:21:17;21.40;99.90
5009;DHT22;2523;51.058;6.922;2023-06-10T00:23:44;21.40;99.90
5009;DHT22;2523;51.058;6.922;2023-06-10T00:26:10;21.40;99.90
5009;DHT22;2523;51.058;6.922;2023-06-10T00:28:35;21.30;99.90
5009;DHT22;2523;51.058;6.922;2023-06-10T00:31:01;21.30;99.90
5009;DHT22;2523;51.058;6.922;2023-06-10T00:33:27;21.30;99.90
5009;DHT22;2523;51.058;6.922;2023-06-10T00:35:53;21.30;99.90
5009;DHT22;2523;51.058;6.922;2023-06-10T00:38:19;21.30;99.90
5009;DHT22;2523;51.058;6.922;2023-06-10T00:40:44;21.30;99.90
5009;DHT22;2523;51.058;6.922;2023-06-10T00:43:10;21.20;99.90
5009;DHT22;2523;51.058;6.922;2023-06-10T00:45:35;21.20;99.90
5009;DHT22;2523;51.058;6.922;2023-06-10T00:48:01;21.20;99.90
5009;DHT22;2523;51.058;6.922;2023-06-10T00:50:27;21.10;99.90
5009;DHT22;2523;51.058;6.922;2023-06-10T00:52:54;21.10;99.90
5009;DHT22;2523;51.058;6.922;2023-06-10T00:55:20;21.10;99.90
5009;DHT22;2523;51.058;6.922;2023-06-10T00:57:46;21.00;99.90
5009;DHT22;2523;51.058;6.922;2023-06-10T01:00:14;21.00;99.90
5009;DHT22;2523;51.058;6.922;2023-06-10T01:02:41;21.00;99.90
5009;DHT22;2523;51.058;6.922;2023-06-10T01:05:07;21.00;99.90
5009;DHT22;2523;51.058;6.922;2023-06-10T01:08:00;21.00;99.90
5009;DHT22;2523;51.058;6.922;2023-06-10T01:10:47;21.00;99.90
5009;DHT22;2523;51.058;6.922;2023-06-10T01:13:16;20.90;99.90
5009;DHT22;2523;51.058;6.922;2023-06-10T01:15:43;20.80;99.90
5009;DHT22;2523;51.058;6.922;2023-06-10T01:18:09;20.80;99.90
5009;DHT22;2523;51.058;6.922;2023-06-10T01:20:37;20.80;99.90
5009;DHT22;2523;51.058;6.922;2023-06-10T01:23:06;20.80;99.90
5009;DHT22;2523;51.058;6.922;2023-06-10T01:25:33;20.80;99.90
5009;DHT22;2523;51.058;6.922;2023-06-10T01:28:21;20.80;99.90
5009;DHT22;2523;51.058;6.922;2023-06-10T01:33:29;20.70;99.90
5009;DHT22;2523;51.058;6.922;2023-06-10T01:35:58;20.60;99.90
5009;DHT22;2523;51.058;6.922;2023-06-10T01:38:26;20.60;99.90
5009;DHT22;2523;51.058;6.922;2023-06-10T01:40:53;20.50;99.90
5009;DHT22;2523;51.058;6.922;2023-06-10T01:43:20;20.50;99.90
5009;DHT22;2523;51.058;6.922;2023-06-10T01:45:46;20.40;99.90
5009;DHT22;2523;51.058;6.922;2023-06-10T01:48:11;20.40;99.90
5009;DHT22;2523;51.058;6.922;2023-06-10T01:50:37;20.40;99.90
5009;DHT22;2523;51.058;6.922;2023-06-10T01:53:03;20.40;99.90
5009;DHT22;2523;51.058;6.922;2023-06-10T01:55:29;20.40;99.90
5009;DHT22;2523;51.058;6.922;2023-06-10T01:57:55;20.30;99.90
5009;DHT22;2523;51.058;6.922;2023-06-10T02:00:20;20.40;99.90
5009;DHT22;2523;51.058;6.922;2023-06-10T02:02:46;20.30;99.90
5009;DHT22;2523;51.058;6.922;2023-06-10T02:05:11;20.30;99.90
5009;DHT22;2523;51.058;6.922;2023-06-10T02:07:37;20.30;99.90
5009;DHT22;2523;51.058;6.922;2023-06-10T02:10:04;20.20;99.90
5009;DHT22;2523;51.058;6.922;2023-06-10T02:12:29;20.20;99.90
5009;DHT22;2523;51.058;6.922;2023-06-10T02:14:55;20.20;99.90
5009;DHT22;2523;51.058;6.922;2023-06-10T02:17:20;20.20;99.90
5009;DHT22;2523;51.058;6.922;2023-06-10T02:19:46;20.20;99.90
5009;DHT22;2523;51.058;6.922;2023-06-10T02:22:22;20.10;99.90
5009;DHT22;2523;51.058;6.922;2023-06-10T02:24:48;20.10;99.90
5009;DHT22;2523;51.058;6.922;2023-06-10T02:27:15;20.10;99.90
5009;DHT22;2523;51.058;6.922;2023-06-10T02:29:41;20.10;99.90
5009;DHT22;2523;51.058;6.922;2023-06-10T02:32:07;20.10;99.90
5009;DHT22;2523;51.058;6.922;2023-06-10T02:34:33;20.00;99.90
5009;DHT22;2523;51.058;6.922;2023-06-10T02:36:59;20.00;99.90
5009;DHT22;2523;51.058;6.922;2023-06-10T02:39:24;19.90;99.90
5009;DHT22;2523;51.058;6.922;2023-06-10T02:41:50;19.90;99.90
5009;DHT22;2523;51.058;6.922;2023-06-10T02:44:18;19.90;99.90
5009;DHT22;2523;51.058;6.922;2023-06-10T02:46:43;19.90;99.90
5009;DHT22;2523;51.058;6.922;2023-06-10T02:49:09;19.80;99.90
5009;DHT22;2523;51.058;6.922;2023-06-10T02:51:34;19.80;99.90
5009;DHT22;2523;51.058;6.922;2023-06-10T02:54:01;19.90;99.90
5009;DHT22;2523;51.058;6.922;2023-06-10T02:56:26;19.80;99.90
5009;DHT22;2523;51.058;6.922;2023-06-10T02:58:52;19.80;99.90
5009;DHT22;2523;51.058;6.922;2023-06-10T03:01:18;19.70;99.90
5009;DHT22;2523;51.058;6.922;2023-06-10T03:03:44;19.70;99.90
5009;DHT22;2523;51.058;6.922;2023-06-10T03:06:12;19.70;99.90
5009;DHT22;2523;51.058;6.922;2023-06-10T03:08:38;19.60;99.90
5009;DHT22;2523;51.058;6.922;2023-06-10T03:11:04;19.70;99.90
5009;DHT22;2523;51.058;6.922;2023-06-10T03:13:29;19.60;99.90
5009;DHT22;2523;51.058;6.922;2023-06-10T03:15:55;19.60;99.90
5009;DHT22;2523;51.058;6.922;2023-06-10T03:18:20;19.60;99.90
5009;DHT22;2523;51.058;6.922;2023-06-10T03:20:48;19.60;99.90
5009;DHT22;2523;51.058;6.922;2023-06-10T03:23:13;19.60;99.90
5009;DHT22;2523;51.058;6.922;2023-06-10T03:25:40;19.50;99.90
5009;DHT22;2523;51.058;6.922;2023-06-10T03:28:06;19.50;99.90
5009;DHT22;2523;51.058;6.922;2023-06-10T03:30:32;19.40;99.90
5009;DHT22;2523;51.058;6.922;2023-06-10T03:32:57;19.40;99.90
5009;DHT22;2523;51.058;6.922;2023-06-10T03:35:23;19.40;99.90
5009;DHT22;2523;51.058;6.922;2023-06-10T03:37:48;19.40;99.90
5009;DHT22;2523;51.058;6.922;2023-06-10T03:40:14;19.40;99.90
5009;DHT22;2523;51.058;6.922;2023-06-10T03:42:40;19.40;99.90
5009;DHT22;2523;51.058;6.922;2023-06-10T03:45:06;19.40;99.90
5009;DHT22;2523;51.058;6.922;2023-06-10T03:47:35;19.40;99.90
5009;DHT22;2523;51.058;6.922;2023-06-10T03:50:01;19.40;99.90
5009;DHT22;2523;51.058;6.922;2023-06-10T03:52:27;19.50;99.90
5009;DHT22;2523;51.058;6.922;2023-06-10T03:54:52;19.40;99.90
5009;DHT22;2523;51.058;6.922;2023-06-10T03:57:18;19.40;99.90
5009;DHT22;2523;51.058;6.922;2023-06-10T03:59:43;19.30;99.90
5009;DHT22;2523;51.058;6.922;2023-06-10T04:02:09;19.30;99.90
5009;DHT22;2523;51.058;6.922;2023-06-10T04:04:35;19.30;99.90
5009;DHT22;2523;51.058;6.922;2023-06-10T04:07:01;19.30;99.90
5009;DHT22;2523;51.058;6.922;2023-06-10T04:09:27;19.30;99.90
5009;DHT22;2523;51.058;6.922;2023-06-10T04:11:52;19.40;99.90
5009;DHT22;2523;51.058;6.922;2023-06-10T04:14:18;19.40;99.90
5009;DHT22;2523;51.058;6.922;2023-06-10T04:16:43;19.40;99.90
5009;DHT22;2523;51.058;6.922;2023-06-10T04:19:09;19.50;99.90
5009;DHT22;2523;51.058;6.922;2023-06-10T04:21:34;19.40;99.90
5009;DHT22;2523;51.058;6.922;2023-06-10T04:24:01;19.40;99.90
5009;DHT22;2523;51.058;6.922;2023-06-10T04:26:27;19.40;99.90
5009;DHT22;2523;51.058;6.922;2023-06-10T04:28:53;19.50;99.90
5009;DHT22;2523;51.058;6.922;2023-06-10T04:31:18;19.50;99.90
5009;DHT22;2523;51.058;6.922;2023-06-10T04:33:44;19.60;99.90
5009;DHT22;2523;51.058;6.922;2023-06-10T04:36:10;19.60;99.90
5009;DHT22;2523;51.058;6.922;2023-06-10T04:38:36;19.70;99.90
5009;DHT22;2523;51.058;6.922;2023-06-10T04:41:01;19.70;99.90
5009;DHT22;2523;51.058;6.922;2023-06-10T04:43:27;19.70;99.90
5009;DHT22;2523;51.058;6.922;2023-06-10T04:45:54;19.80;99.90
5009;DHT22;2523;51.058;6.922;2023-06-10T04:48:20;19.70;99.90
5009;DHT22;2523;51.058;6.922;2023-06-10T04:50:45;19.70;99.90
5009;DHT22;2523;51.058;6.922;2023-06-10T04:53:11;19.70;99.90
5009;DHT22;2523;51.058;6.922;2023-06-10T04:55:36;19.80;99.90
5009;DHT22;2523;51.058;6.922;2023-06-10T04:58:02;19.80;99.90
5009;DHT22;2523;51.058;6.922;2023-06-10T05:00:27;19.80;99.90
5009;DHT22;2523;51.058;6.922;2023-06-10T05:02:53;19.90;99.90
5009;DHT22;2523;51.058;6.922;2023-06-10T05:05:19;20.00;99.90
5009;DHT22;2523;51.058;6.922;2023-06-10T05:07:44;19.90;99.90
5009;DHT22;2523;51.058;6.922;2023-06-10T05:10:10;20.00;99.90
5009;DHT22;2523;51.058;6.922;2023-06-10T05:12:38;20.00;99.90
5009;DHT22;2523;51.058;6.922;2023-06-10T05:15:05;20.00;99.90
5009;DHT22;2523;51.058;6.922;2023-06-10T05:17:31;20.10;99.90
5009;DHT22;2523;51.058;6.922;2023-06-10T05:19:56;20.20;99.90
5009;DHT22;2523;51.058;6.922;2023-06-10T05:22:22;20.20;99.90
5009;DHT22;2523;51.058;6.922;2023-06-10T05:24:50;20.20;99.90
5009;DHT22;2523;51.058;6.922;2023-06-10T05:27:16;20.30;99.90
5009;DHT22;2523;51.058;6.922;2023-06-10T05:29:42;20.30;99.90
5009;DHT22;2523;51.058;6.922;2023-06-10T05:32:08;20.40;99.90
5009;DHT22;2523;51.058;6.922;2023-06-10T05:34:33;20.50;99.90
5009;DHT22;2523;51.058;6.922;2023-06-10T05:36:59;20.50;99.90
5009;DHT22;2523;51.058;6.922;2023-06-10T05:39:25;20.60;99.90
5009;DHT22;2523;51.058;6.922;2023-06-10T05:41:50;20.70;99.90
5009;DHT22;2523;51.058;6.922;2023-06-10T05:44:16;20.80;99.90
5009;DHT22;2523;51.058;6.922;2023-06-10T05:46:41;20.90;99.90
5009;DHT22;2523;51.058;6.922;2023-06-10T05:49:07;21.00;99.90
5009;DHT22;2523;51.058;6.922;2023-06-10T05:51:32;21.00;99.90
5009;DHT22;2523;51.058;6.922;2023-06-10T05:53:58;21.00;99.90
5009;DHT22;2523;51.058;6.922;2023-06-10T05:56:24;21.20;99.90
5009;DHT22;2523;51.058;6.922;2023-06-10T05:58:51;21.20;99.90
5009;DHT22;2523;51.058;6.922;2023-06-10T06:01:16;21.20;99.90
5009;DHT22;2523;51.058;6.922;2023-06-10T06:03:42;21.40;99.90
5009;DHT22;2523;51.058;6.922;2023-06-10T06:06:07;21.50;99.90
5009;DHT22;2523;51.058;6.922;2023-06-10T06:08:33;21.60;99.90
5009;DHT22;2523;51.058;6.922;2023-06-10T06:10:58;21.70;99.90
5009;DHT22;2523;51.058;6.922;2023-06-10T06:13:24;21.70;99.90
5009;DHT22;2523;51.058;6.922;2023-06-10T06:15:50;21.80;99.90
5009;DHT22;2523;51.058;6.922;2023-06-10T06:18:15;21.90;99.90
5009;DHT22;2523;51.058;6.922;2023-06-10T06:20:41;22.00;99.90
5009;DHT22;2523;51.058;6.922;2023-06-10T06:23:06;22.10;99.90
5009;DHT22;2523;51.058;6.922;2023-06-10T06:25:35;22.10;99.90
5009;DHT22;2523;51.058;6.922;2023-06-10T06:28:02;22.20;99.90
5009;DHT22;2523;51.058;6.922;2023-06-10T06:30:27;22.30;99.90
5009;DHT22;2523;51.058;6.922;2023-06-10T06:32:53;22.10;99.90
5009;DHT22;2523;51.058;6.922;2023-06-10T06:35:18;22.20;99.90
5009;DHT22;2523;51.058;6.922;2023-06-10T06:37:44;22.30;99.90
5009;DHT22;2523;51.058;6.922;2023-06-10T06:40:10;22.40;99.90
5009;DHT22;2523;51.058;6.922;2023-06-10T06:42:36;22.50;99.90
5009;DHT22;2523;51.058;6.922;2023-06-10T06:45:01;22.60;99.90
5009;DHT22;2523;51.058;6.922;2023-06-10T06:47:27;22.70;99.90
5009;DHT22;2523;51.058;6.922;2023-06-10T06:49:52;22.70;99.90
5009;DHT22;2523;51.058;6.922;2023-06-10T06:52:18;22.80;99.90
5009;DHT22;2523;51.058;6.922;2023-06-10T06:54:44;22.80;99.90
5009;DHT22;2523;51.058;6.922;2023-06-10T06:57:10;22.70;99.90
5009;DHT22;2523;51.058;6.922;2023-06-10T06:59:36;22.70;99.90
5009;DHT22;2523;51.058;6.922;2023-06-10T07:02:02;22.70;99.90
5009;DHT22;2523;51.058;6.922;2023-06-10T07:04:27;22.70;99.90
5009;DHT22;2523;51.058;6.922;2023-06-10T07:06:53;22.80;99.90
5009;DHT22;2523;51.058;6.922;2023-06-10T07:09:18;22.90;99.90
5009;DHT22;2523;51.058;6.922;2023-06-10T07:11:44;23.00;99.90
5009;DHT22;2523;51.058;6.922;2023-06-10T07:14:09;22.90;99.90
5009;DHT22;2523;51.058;6.922;2023-06-10T07:16:35;23.00;99.90
5009;DHT22;2523;51.058;6.922;2023-06-10T07:19:00;22.90;99.90
5009;DHT22;2523;51.058;6.922;2023-06-10T07:21:26;22.90;99.90
5009;DHT22;2523;51.058;6.922;2023-06-10T07:23:54;23.00;99.90
5009;DHT22;2523;51.058;6.922;2023-06-10T07:26:22;23.00;99.90
5009;DHT22;2523;51.058;6.922;2023-06-10T07:28:48;23.10;99.90
5009;DHT22;2523;51.058;6.922;2023-06-10T07:31:14;23.20;99.90
5009;DHT22;2523;51.058;6.922;2023-06-10T07:33:39;23.30;99.90
5009;DHT22;2523;51.058;6.922;2023-06-10T07:36:06;23.30;99.90
5009;DHT22;2523;51.058;6.922;2023-06-10T07:38:31;23.40;99.90
5009;DHT22;2523;51.058;6.922;2023-06-10T07:40:57;23.50;99.90
5009;DHT22;2523;51.058;6.922;2023-06-10T07:43:24;23.60;99.90
5009;DHT22;2523;51.058;6.922;2023-06-10T07:45:49;23.70;99.90
5009;DHT22;2523;51.058;6.922;2023-06-10T07:48:15;23.70;99.90
5009;DHT22;2523;51.058;6.922;2023-06-10T07:50:41;23.80;99.90
5009;DHT22;2523;51.058;6.922;2023-06-10T07:53:06;23.90;99.90
5009;DHT22;2523;51.058;6.922;2023-06-10T07:55:32;23.80;99.90
5009;DHT22;2523;51.058;6.922;2023-06-10T07:57:58;23.90;99.90
5009;DHT22;2523;51.058;6.922;2023-06-10T08:00:23;23.90;99.90
5009;DHT22;2523;51.058;6.922;2023-06-10T08:02:49;24.00;99.90
5009;DHT22;2523;51.058;6.922;2023-06-10T08:05:16;24.10;99.90
5009;DHT22;2523;51.058;6.922;2023-06-10T08:07:41;24.20;99.90
5009;DHT22;2523;51.058;6.922;2023-06-10T08:10:08;24.30;99.90
5009;DHT22;2523;51.058;6.922;2023-06-10T08:12:34;24.30;99.90
5009;DHT22;2523;51.058;6.922;2023-06-10T08:15:00;24.30;99.90
5009;DHT22;2523;51.058;6.922;2023-06-10T08:17:26;24.40;99.90
5009;DHT22;2523;51.058;6.922;2023-06-10T08:19:52;24.50;99.90
5009;DHT22;2523;51.058;6.922;2023-06-10T08:22:17;24.60;99.90
5009;DHT22;2523;51.058;6.922;2023-06-10T08:24:43;24.60;99.90
5009;DHT22;2523;51.058;6.922;2023-06-10T08:27:09;24.70;99.90
5009;DHT22;2523;51.058;6.922;2023-06-10T08:29:35;24.70;99.90
5009;DHT22;2523;51.058;6.922;2023-06-10T08:32:01;24.80;99.90
5009;DHT22;2523;51.058;6.922;2023-06-10T08:34:27;24.90;99.90
5009;DHT22;2523;51.058;6.922;2023-06-10T08:36:54;25.00;99.90
5009;DHT22;2523;51.058;6.922;2023-06-10T08:39:21;25.10;99.90
5009;DHT22;2523;51.058;6.922;2023-06-10T08:44:28;25.40;99.90
5009;DHT22;2523;51.058;6.922;2023-06-10T08:46:56;25.50;99.90
5009;DHT22;2523;51.058;6.922;2023-06-10T08:49:25;25.60;99.90
5009;DHT22;2523;51.058;6.922;2023-06-10T08:51:57;25.70;99.90
5009;DHT22;2523;51.058;6.922;2023-06-10T08:54:27;25.80;99.90
5009;DHT22;2523;51.058;6.922;2023-06-10T08:56:55;25.90;99.90
5009;DHT22;2523;51.058;6.922;2023-06-10T08:59:21;26.00;99.90
5009;DHT22;2523;51.058;6.922;2023-06-10T09:01:47;26.00;99.90
5009;DHT22;2523;51.058;6.922;2023-06-10T09:04:14;26.10;99.90
5009;DHT22;2523;51.058;6.922;2023-06-10T09:06:41;26.30;99.90
5009;DHT22;2523;51.058;6.922;2023-06-10T09:09:07;26.40;99.90
5009;DHT22;2523;51.058;6.922;2023-06-10T09:11:33;26.50;98.90
5009;DHT22;2523;51.058;6.922;2023-06-10T09:13:59;26.60;99.90
5009;DHT22;2523;51.058;6.922;2023-06-10T09:16:25;26.70;97.30
5009;DHT22;2523;51.058;6.922;2023-06-10T09:18:51;26.90;94.60
5009;DHT22;2523;51.058;6.922;2023-06-10T09:21:22;27.00;93.20
5009;DHT22;2523;51.058;6.922;2023-06-10T09:23:48;27.20;82.60
5009;DHT22;2523;51.058;6.922;2023-06-10T09:26:13;27.30;84.60
5009;DHT22;2523;51.058;6.922;2023-06-10T09:28:39;27.40;81.10
5009;DHT22;2523;51.058;6.922;2023-06-10T09:31:06;27.50;74.80
5009;DHT22;2523;51.058;6.922;2023-06-10T09:33:38;27.60;60.70
5009;DHT22;2523;51.058;6.922;2023-06-10T09:36:07;27.50;59.70
5009;DHT22;2523;51.058;6.922;2023-06-10T09:38:34;27.60;56.10
5009;DHT22;2523;51.058;6.922;2023-06-10T09:41:00;27.70;88.30
5009;DHT22;2523;51.058;6.922;2023-06-10T09:43:42;27.60;99.90
5009;DHT22;2523;51.058;6.922;2023-06-10T09:46:16;27.60;94.00
5009;DHT22;2523;51.058;6.922;2023-06-10T09:48:43;27.90;91.40
5009;DHT22;2523;51.058;6.922;2023-06-10T09:51:09;27.90;89.20
5009;DHT22;2523;51.058;6.922;2023-06-10T09:53:36;28.00;92.20
5009;DHT22;2523;51.058;6.922;2023-06-10T09:56:01;27.90;91.40
5009;DHT22;2523;51.058;6.922;2023-06-10T09:58:37;28.10;92.20
5009;DHT22;2523;51.058;6.922;2023-06-10T10:01:09;28.10;91.00
5009;DHT22;2523;51.058;6.922;2023-06-10T10:03:51;28.20;91.90
5009;DHT22;2523;51.058;6.922;2023-06-10T10:06:18;28.10;54.40
5009;DHT22;2523;51.058;6.922;2023-06-10T10:08:48;28.30;61.60
5009;DHT22;2523;51.058;6.922;2023-06-10T10:11:17;28.40;88.50
5009;DHT22;2523;51.058;6.922;2023-06-10T10:13:47;28.40;45.90
5009;DHT22;2523;51.058;6.922;2023-06-10T10:16:21;28.60;55.50
5009;DHT22;2523;51.058;6.922;2023-06-10T10:18:57;28.70;51.60
5009;DHT22;2523;51.058;6.922;2023-06-10T10:21:26;28.70;58.80
5009;DHT22;2523;51.058;6.922;2023-06-10T10:26:21;28.20;66.60
5009;DHT22;2523;51.058;6.922;2023-06-10T10:31:27;27.60;88.00
5009;DHT22;2523;51.058;6.922;2023-06-10T10:33:58;27.40;89.60
5009;DHT22;2523;51.058;6.922;2023-06-10T10:36:25;27.20;90.90
5009;DHT22;2523;51.058;6.922;2023-06-10T10:38:51;27.20;92.60
5009;DHT22;2523;51.058;6.922;2023-06-10T10:41:18;27.20;94.20
5009;DHT22;2523;51.058;6.922;2023-06-10T10:43:45;27.40;91.40
5009;DHT22;2523;51.058;6.922;2023-06-10T10:46:13;27.30;99.40
5009;DHT22;2523;51.058;6.922;2023-06-10T10:48:39;27.30;99.90
5009;DHT22;2523;51.058;6.922;2023-06-10T10:51:07;27.10;96.20
5009;DHT22;2523;51.058;6.922;2023-06-10T10:53:33;27.20;78.70
5009;DHT22;2523;51.058;6.922;2023-06-10T10:56:15;27.20;99.90
5009;DHT22;2523;51.058;6.922;2023-06-10T10:58:40;27.20;99.90
5009;DHT22;2523;51.058;6.922;2023-06-10T11:01:13;27.50;99.90
5009;DHT22;2523;51.058;6.922;2023-06-10T11:03:44;28.20;99.90
5009;DHT22;2523;51.058;6.922;2023-06-10T11:06:14;28.70;59.10
5009;DHT22;2523;51.058;6.922;2023-06-10T11:11:25;29.40;41.60
5009;DHT22;2523;51.058;6.922;2023-06-10T11:16:28;29.30;34.00
5009;DHT22;2523;51.058;6.922;2023-06-10T11:18:54;29.20;40.00
5009;DHT22;2523;51.058;6.922;2023-06-10T11:21:20;29.00;44.70
5009;DHT22;2523;51.058;6.922;2023-06-10T11:23:46;29.10;35.50
5009;DHT22;2523;51.058;6.922;2023-06-10T11:33:54;29.40;32.00
5009;DHT22;2523;51.058;6.922;2023-06-10T11:36:20;29.40;37.20
5009;DHT22;2523;51.058;6.922;2023-06-10T11:38:46;29.30;32.20
5009;DHT22;2523;51.058;6.922;2023-06-10T11:41:12;29.10;30.20
5009;DHT22;2523;51.058;6.922;2023-06-10T11:43:45;29.00;36.30
5009;DHT22;2523;51.058;6.922;2023-06-10T11:46:12;28.90;46.90
5009;DHT22;2523;51.058;6.922;2023-06-10T11:48:38;28.60;39.90
5009;DHT22;2523;51.058;6.922;2023-06-10T11:51:07;28.40;83.90
5009;DHT22;2523;51.058;6.922;2023-06-10T11:53:33;28.20;54.10
5009;DHT22;2523;51.058;6.922;2023-06-10T11:55:59;28.00;74.40
5009;DHT22;2523;51.058;6.922;2023-06-10T11:58:24;28.00;49.10
5009;DHT22;2523;51.058;6.922;2023-06-10T12:00:55;28.00;34.00
5009;DHT22;2523;51.058;6.922;2023-06-10T12:03:24;28.00;35.80
5009;DHT22;2523;51.058;6.922;2023-06-10T12:08:24;28.30;23.60
5009;DHT22;2523;51.058;6.922;2023-06-10T12:10:50;28.60;22.00
5009;DHT22;2523;51.058;6.922;2023-06-10T12:13:16;29.10;19.10
5009;DHT22;2523;51.058;6.922;2023-06-10T12:15:45;29.60;22.20
5009;DHT22;2523;51.058;6.922;2023-06-10T12:18:23;30.10;17.20
5009;DHT22;2523;51.058;6.922;2023-06-10T12:20:50;30.60;13.00
5009;DHT22;2523;51.058;6.922;2023-06-10T12:23:17;30.60;11.00
5009;DHT22;2523;51.058;6.922;2023-06-10T12:25:51;30.90;11.80
5009;DHT22;2523;51.058;6.922;2023-06-10T12:28:24;31.20;14.80
5009;DHT22;2523;51.058;6.922;2023-06-10T12:30:50;31.20;9.20
5009;DHT22;2523;51.058;6.922;2023-06-10T12:33:16;31.40;9.20
5009;DHT22;2523;51.058;6.922;2023-06-10T12:35:48;31.50;7.10
5009;DHT22;2523;51.058;6.922;2023-06-10T12:38:14;31.10;7.20
5009;DHT22;2523;51.058;6.922;2023-06-10T12:40:40;30.90;8.10
5009;DHT22;2523;51.058;6.922;2023-06-10T12:43:06;30.60;9.00
5009;DHT22;2523;51.058;6.922;2023-06-10T12:45:37;30.20;8.60
5009;DHT22;2523;51.058;6.922;2023-06-10T12:48:24;30.10;12.70
5009;DHT22;2523;51.058;6.922;2023-06-10T12:50:55;29.70;16.20
5009;DHT22;2523;51.058;6.922;2023-06-10T12:53:21;29.50;18.60
5009;DHT22;2523;51.058;6.922;2023-06-10T12:55:48;29.40;18.90
5009;DHT22;2523;51.058;6.922;2023-06-10T12:58:14;29.30;20.20
5009;DHT22;2523;51.058;6.922;2023-06-10T13:00:40;29.30;21.60
5009;DHT22;2523;51.058;6.922;2023-06-10T13:03:08;29.20;23.50
5009;DHT22;2523;51.058;6.922;2023-06-10T13:05:35;29.20;23.80
5009;DHT22;2523;51.058;6.922;2023-06-10T13:08:07;29.20;24.60
5009;DHT22;2523;51.058;6.922;2023-06-10T13:10:35;29.20;25.30
5009;DHT22;2523;51.058;6.922;2023-06-10T13:13:02;29.00;26.10
5009;DHT22;2523;51.058;6.922;2023-06-10T13:15:31;29.00;24.40
5009;DHT22;2523;51.058;6.922;2023-06-10T13:17:56;29.00;21.60
5009;DHT22;2523;51.058;6.922;2023-06-10T13:20:22;28.80;20.20
5009;DHT22;2523;51.058;6.922;2023-06-10T13:22:48;28.80;20.10
5009;DHT22;2523;51.058;6.922;2023-06-10T13:25:15;28.90;17.40
5009;DHT22;2523;51.058;6.922;2023-06-10T13:27:40;28.90;17.40
5009;DHT22;2523;51.058;6.922;2023-06-10T13:30:08;28.90;17.60
5009;DHT22;2523;51.058;6.922;2023-06-10T13:32:35;29.20;17.00
5009;DHT22;2523;51.058;6.922;2023-06-10T13:35:01;29.70;16.30
5009;DHT22;2523;51.058;6.922;2023-06-10T13:37:26;30.10;15.50
5009;DHT22;2523;51.058;6.922;2023-06-10T13:39:52;30.50;12.40
5009;DHT22;2523;51.058;6.922;2023-06-10T13:42:18;30.90;9.10
5009;DHT22;2523;51.058;6.922;2023-06-10T13:44:43;31.20;7.40
5009;DHT22;2523;51.058;6.922;2023-06-10T13:47:09;31.10;6.90
5009;DHT22;2523;51.058;6.922;2023-06-10T13:49:35;31.40;7.30
5009;DHT22;2523;51.058;6.922;2023-06-10T13:52:01;31.60;9.80
5009;DHT22;2523;51.058;6.922;2023-06-10T13:54:27;31.60;6.90
5009;DHT22;2523;51.058;6.922;2023-06-10T13:56:52;31.70;6.80
5009;DHT22;2523;51.058;6.922;2023-06-10T13:59:19;31.50;5.00
5009;DHT22;2523;51.058;6.922;2023-06-10T14:01:44;31.40;7.30
5009;DHT22;2523;51.058;6.922;2023-06-10T14:04:10;31.20;6.70
5009;DHT22;2523;51.058;6.922;2023-06-10T14:06:36;30.80;6.30
5009;DHT22;2523;51.058;6.922;2023-06-10T14:09:01;30.60;6.10
5009;DHT22;2523;51.058;6.922;2023-06-10T14:11:27;30.30;6.10
5009;DHT22;2523;51.058;6.922;2023-06-10T14:13:52;30.20;6.90
5009;DHT22;2523;51.058;6.922;2023-06-10T14:16:18;30.00;5.80
5009;DHT22;2523;51.058;6.922;2023-06-10T14:18:44;29.80;5.70
5009;DHT22;2523;51.058;6.922;2023-06-10T14:21:09;29.70;5.20
5009;DHT22;2523;51.058;6.922;2023-06-10T14:23:35;29.70;5.90
5009;DHT22;2523;51.058;6.922;2023-06-10T14:26:00;29.70;5.40
5009;DHT22;2523;51.058;6.922;2023-06-10T14:28:28;29.70;6.10
5009;DHT22;2523;51.058;6.922;2023-06-10T14:30:54;29.70;6.40
5009;DHT22;2523;51.058;6.922;2023-06-10T14:33:19;29.60;7.40
5009;DHT22;2523;51.058;6.922;2023-06-10T14:35:45;29.50;6.10
5009;DHT22;2523;51.058;6.922;2023-06-10T14:38:11;29.50;8.40
5009;DHT22;2523;51.058;6.922;2023-06-10T14:40:36;29.60;6.50
5009;DHT22;2523;51.058;6.922;2023-06-10T14:43:02;29.90;6.20
5009;DHT22;2523;51.058;6.922;2023-06-10T14:45:30;30.30;6.90
5009;DHT22;2523;51.058;6.922;2023-06-10T14:47:55;30.50;5.10
5009;DHT22;2523;51.058;6.922;2023-06-10T14:50:21;30.60;4.70
5009;DHT22;2523;51.058;6.922;2023-06-10T14:52:46;30.70;4.70
5009;DHT22;2523;51.058;6.922;2023-06-10T14:55:12;30.80;6.20
5009;DHT22;2523;51.058;6.922;2023-06-10T14:57:37;30.70;4.00
5009;DHT22;2523;51.058;6.922;2023-06-10T15:00:03;30.80;4.50
5009;DHT22;2523;51.058;6.922;2023-06-10T15:02:29;30.80;3.50
5009;DHT22;2523;51.058;6.922;2023-06-10T15:04:54;30.80;3.10
5009;DHT22;2523;51.058;6.922;2023-06-10T15:07:20;30.90;3.50
5009;DHT22;2523;51.058;6.922;2023-06-10T15:09:45;30.80;3.90
5009;DHT22;2523;51.058;6.922;2023-06-10T15:12:11;30.90;4.20
5009;DHT22;2523;51.058;6.922;2023-06-10T15:14:36;30.70;5.60
5009;DHT22;2523;51.058;6.922;2023-06-10T15:17:02;30.50;5.30
5009;DHT22;2523;51.058;6.922;2023-06-10T15:19:28;30.60;4.80
5009;DHT22;2523;51.058;6.922;2023-06-10T15:21:53;30.40;4.60
5009;DHT22;2523;51.058;6.922;2023-06-10T15:24:19;30.50;5.50
5009;DHT22;2523;51.058;6.922;2023-06-10T15:26:44;30.50;4.70
5009;DHT22;2523;51.058;6.922;2023-06-10T15:29:10;30.50;5.50
5009;DHT22;2523;51.058;6.922;2023-06-10T15:31:36;30.40;4.10
5009;DHT22;2523;51.058;6.922;2023-06-10T15:34:02;30.40;4.90
5009;DHT22;2523;51.058;6.922;2023-06-10T15:36:28;30.30;4.60
5009;DHT22;2523;51.058;6.922;2023-06-10T15:38:54;30.30;5.20
5009;DHT22;2523;51.058;6.922;2023-06-10T15:41:25;30.30;4.40
5009;DHT22;2523;51.058;6.922;2023-06-10T15:43:51;30.20;5.20
5009;DHT22;2523;51.058;6.922;2023-06-10T15:46:16;30.20;6.20
5009;DHT22;2523;51.058;6.922;2023-06-10T15:48:41;30.10;5.50
5009;DHT22;2523;51.058;6.922;2023-06-10T15:51:07;30.00;3.10
5009;DHT22;2523;51.058;6.922;2023-06-10T15:53:33;30.00;3.70
5009;DHT22;2523;51.058;6.922;2023-06-10T15:55:58;29.90;3.80
5009;DHT22;2523;51.058;6.922;2023-06-10T15:58:24;29.90;3.80
5009;DHT22;2523;51.058;6.922;2023-06-10T16:00:49;29.90;3.40
5009;DHT22;2523;51.058;6.922;2023-06-10T16:03:15;29.90;3.40
5009;DHT22;2523;51.058;6.922;2023-06-10T16:05:40;29.80;4.30
5009;DHT22;2523;51.058;6.922;2023-06-10T16:08:06;29.80;3.00
5009;DHT22;2523;51.058;6.922;2023-06-10T16:10:31;29.80;3.50
5009;DHT22;2523;51.058;6.922;2023-06-10T16:12:57;29.70;3.90
5009;DHT22;2523;51.058;6.922;2023-06-10T16:15:23;29.70;4.10
5009;DHT22;2523;51.058;6.922;2023-06-10T16:17:48;29.70;4.60
5009;DHT22;2523;51.058;6.922;2023-06-10T16:20:14;29.70;4.90
5009;DHT22;2523;51.058;6.922;2023-06-10T16:22:39;29.70;4.50
5009;DHT22;2523;51.058;6.922;2023-06-10T16:25:05;29.60;4.40
5009;DHT22;2523;51.058;6.922;2023-06-10T16:27:31;29.60;4.30